createdAt,value
2022-10-15T00:00:29.835Z,17.25
2022-10-15T00:01:29.925Z,17.08
2022-10-15T00:02:29.836Z,17.10
2022-10-15T00:03:29.824Z,17.13
2022-10-15T00:04:29.839Z,17.11
2022-10-15T00:05:29.881Z,17.20
2022-10-15T00:06:29.812Z,17.14
2022-10-15T00:07:29.813Z,17.26
2022-10-15T00:08:29.876Z,17.11
2022-10-15T00:09:29.821Z,17.10
2022-10-15T00:10:29.805Z,17.13
2022-10-15T00:11:29.792Z,17.14
2022-10-15T00:12:29.765Z,17.17
2022-10-15T00:13:29.773Z,17.10
2022-10-15T00:14:29.757Z,17.17
2022-10-15T00:15:29.769Z,17.17
2022-10-15T00:16:29.801Z,17.07
2022-10-15T00:17:29.737Z,17.28
2022-10-15T00:18:29.761Z,17.18
2022-10-15T00:19:29.751Z,16.93
2022-10-15T00:20:29.714Z,16.98
2022-10-15T00:21:29.733Z,16.95
2022-10-15T00:22:29.721Z,17.00
2022-10-15T00:23:29.729Z,17.11
2022-10-15T00:24:29.757Z,17.25
2022-10-15T00:25:29.733Z,17.22
2022-10-15T00:26:29.772Z,17.26
2022-10-15T00:27:29.749Z,17.17
2022-10-15T00:28:33.424Z,17.20
2022-10-15T00:29:29.817Z,17.13
2022-10-15T00:30:29.662Z,17.18
2022-10-15T00:31:29.657Z,17.11
2022-10-15T00:32:29.728Z,17.15
2022-10-15T00:33:29.705Z,17.03
2022-10-15T00:34:29.651Z,17.10
2022-10-15T00:35:29.629Z,17.15
2022-10-15T00:36:29.662Z,17.07
2022-10-15T00:37:29.637Z,17.08
2022-10-15T00:38:29.660Z,17.10
2022-10-15T00:39:29.785Z,17.20
2022-10-15T00:40:29.613Z,17.20
2022-10-15T00:41:29.674Z,17.25
2022-10-15T00:42:29.625Z,17.35
2022-10-15T00:43:29.625Z,17.32
2022-10-15T00:44:29.629Z,17.28
2022-10-15T00:45:29.589Z,17.25
2022-10-15T00:46:29.597Z,17.04
2022-10-15T00:47:29.680Z,17.00
2022-10-15T00:48:29.553Z,17.18
2022-10-15T00:49:29.621Z,16.96
2022-10-15T00:50:29.573Z,16.85
2022-10-15T00:51:29.562Z,16.81
2022-10-15T00:52:29.562Z,16.83
2022-10-15T00:53:29.533Z,16.98
2022-10-15T00:54:29.556Z,16.92
2022-10-15T00:55:29.561Z,16.93
2022-10-15T00:56:29.546Z,17.08
2022-10-15T00:57:29.553Z,17.13
2022-10-15T00:58:29.513Z,16.98
2022-10-15T00:59:29.585Z,17.08
2022-10-15T01:00:29.518Z,16.95
2022-10-15T01:01:29.591Z,17.04
2022-10-15T01:02:29.515Z,17.13
2022-10-15T01:03:29.521Z,17.10
2022-10-15T01:04:29.646Z,17.18
2022-10-15T01:05:29.456Z,17.00
2022-10-15T01:06:29.450Z,17.04
2022-10-15T01:07:29.441Z,17.11
2022-10-15T01:08:29.450Z,17.06
2022-10-15T01:09:29.452Z,17.10
2022-10-15T01:10:29.433Z,17.15
2022-10-15T01:11:29.424Z,17.18
2022-10-15T01:12:29.425Z,17.18
2022-10-15T01:13:29.441Z,17.22
2022-10-15T01:14:29.410Z,17.28
2022-10-15T01:15:29.397Z,17.54
2022-10-15T01:16:29.378Z,17.48
2022-10-15T01:17:29.449Z,17.51
2022-10-15T01:18:29.377Z,17.51
2022-10-15T01:19:29.379Z,17.55
2022-10-15T01:20:29.384Z,17.62
2022-10-15T01:21:29.374Z,17.57
2022-10-15T01:22:29.376Z,17.62
2022-10-15T01:23:29.377Z,17.50
2022-10-15T01:24:29.352Z,17.46
2022-10-15T01:25:29.357Z,17.35
2022-10-15T01:26:29.336Z,17.35
2022-10-15T01:27:29.324Z,17.33
2022-10-15T01:28:29.390Z,17.33
2022-10-15T01:29:29.329Z,17.41
2022-10-15T01:30:29.295Z,17.32
2022-10-15T01:31:29.308Z,17.50
2022-10-15T01:32:29.299Z,17.43
2022-10-15T01:33:29.287Z,17.23
2022-10-15T01:34:29.291Z,17.18
2022-10-15T01:35:29.269Z,17.17
2022-10-15T01:36:29.274Z,17.13
2022-10-15T01:37:29.280Z,17.25
2022-10-15T01:38:29.265Z,17.32
2022-10-15T01:39:29.269Z,17.43
2022-10-15T01:40:29.254Z,17.43
2022-10-15T01:41:29.245Z,17.14
2022-10-15T01:42:30.221Z,17.23
2022-10-15T01:43:29.253Z,17.22
2022-10-15T01:44:29.237Z,17.22
2022-10-15T01:45:29.233Z,17.17
2022-10-15T01:46:29.223Z,17.11
2022-10-15T01:47:29.277Z,17.15
2022-10-15T01:48:29.215Z,17.10
2022-10-15T01:49:29.187Z,17.18
2022-10-15T01:50:29.207Z,17.25
2022-10-15T01:51:29.217Z,17.32
2022-10-15T01:53:29.173Z,17.14
2022-10-15T01:54:29.189Z,17.03
2022-10-15T01:55:29.176Z,17.10
2022-10-15T01:56:29.156Z,17.13
2022-10-15T01:57:29.165Z,17.03
2022-10-15T01:58:29.132Z,16.99
2022-10-15T01:59:29.124Z,16.71
2022-10-15T02:00:29.144Z,16.62
2022-10-15T02:01:29.213Z,16.78
2022-10-15T02:02:29.117Z,16.86
2022-10-15T02:03:29.105Z,17.11
2022-10-15T02:04:29.118Z,17.17
2022-10-15T02:05:29.110Z,17.25
2022-10-15T02:06:29.102Z,17.28
2022-10-15T02:07:29.080Z,17.35
2022-10-15T02:08:29.095Z,17.25
2022-10-15T02:09:29.079Z,17.30
2022-10-15T02:10:29.071Z,17.32
2022-10-15T02:11:29.083Z,17.38
2022-10-15T02:12:29.066Z,17.38
2022-10-15T02:13:29.054Z,17.47
2022-10-15T02:14:29.050Z,17.51
2022-10-15T02:15:29.071Z,17.32
2022-10-15T02:16:29.060Z,17.22
2022-10-15T02:17:29.030Z,17.14
2022-10-15T02:18:29.017Z,17.22
2022-10-15T02:19:29.018Z,17.25
2022-10-15T02:20:29.033Z,17.10
2022-10-15T02:21:29.051Z,17.13
2022-10-15T02:22:29.001Z,17.07
2022-10-15T02:23:28.994Z,16.90
2022-10-15T02:24:28.987Z,16.92
2022-10-15T02:25:28.986Z,16.80
2022-10-15T02:26:29.002Z,16.83
2022-10-15T02:27:28.975Z,16.74
2022-10-15T02:28:29.024Z,16.81
2022-10-15T02:29:28.998Z,16.88
2022-10-15T02:30:28.938Z,17.00
2022-10-15T02:31:28.996Z,16.93
2022-10-15T02:32:28.939Z,16.98
2022-10-15T02:33:28.934Z,17.03
2022-10-15T02:34:28.924Z,17.13
2022-10-15T02:35:28.917Z,17.14
2022-10-15T02:36:28.958Z,17.20
2022-10-15T02:37:28.912Z,17.30
2022-10-15T02:38:28.902Z,17.36
2022-10-15T02:39:28.907Z,17.28
2022-10-15T02:40:28.878Z,17.18
2022-10-15T02:41:28.918Z,16.95
2022-10-15T02:42:28.898Z,17.10
2022-10-15T02:43:28.886Z,17.10
2022-10-15T02:44:28.863Z,17.10
2022-10-15T02:45:28.857Z,17.07
2022-10-15T02:46:29.114Z,17.18
2022-10-15T02:47:28.849Z,17.36
2022-10-15T02:48:28.852Z,17.32
2022-10-15T02:49:28.834Z,17.32
2022-10-15T02:50:28.854Z,17.17
2022-10-15T02:51:28.814Z,17.20
2022-10-15T02:52:28.834Z,17.25
2022-10-15T02:53:28.833Z,17.08
2022-10-15T02:54:28.842Z,17.15
2022-10-15T02:55:28.789Z,17.14
2022-10-15T02:57:28.805Z,17.17
2022-10-15T02:58:28.788Z,17.15
2022-10-15T02:59:28.799Z,17.13
2022-10-15T03:00:28.766Z,17.18
2022-10-15T03:01:28.819Z,17.22
2022-10-15T03:02:28.822Z,17.23
2022-10-15T03:03:28.772Z,17.14
2022-10-15T03:04:28.761Z,17.29
2022-10-15T03:06:28.728Z,17.00
2022-10-15T03:07:28.750Z,16.95
2022-10-15T03:08:28.753Z,17.10
2022-10-15T03:09:28.726Z,17.08
2022-10-15T03:10:28.721Z,17.03
2022-10-15T03:11:28.734Z,17.18
2022-10-15T03:12:28.728Z,17.18
2022-10-15T03:13:28.713Z,17.23
2022-10-15T03:15:28.695Z,17.33
2022-10-15T03:16:28.664Z,17.20
2022-10-15T03:17:28.675Z,17.20
2022-10-15T03:18:28.680Z,17.33
2022-10-15T03:19:28.647Z,17.14
2022-10-15T03:20:28.686Z,17.23
2022-10-15T03:21:28.652Z,17.22
2022-10-15T03:22:28.663Z,17.35
2022-10-15T03:23:28.649Z,17.33
2022-10-15T03:24:29.575Z,17.36
2022-10-15T03:25:28.627Z,17.40
2022-10-15T03:26:28.621Z,17.30
2022-10-15T03:27:28.624Z,17.32
2022-10-15T03:28:28.633Z,17.33
2022-10-15T03:29:28.588Z,17.33
2022-10-15T03:30:28.603Z,17.36
2022-10-15T03:31:28.589Z,17.36
2022-10-15T03:32:29.704Z,17.44
2022-10-15T03:33:28.580Z,17.44
2022-10-15T03:34:28.580Z,17.53
2022-10-15T03:35:28.576Z,17.59
2022-10-15T03:36:28.571Z,17.50
2022-10-15T03:37:28.531Z,17.50
2022-10-15T03:38:28.535Z,17.51
2022-10-15T03:39:28.520Z,17.59
2022-10-15T03:40:28.536Z,17.44
2022-10-15T03:41:28.519Z,17.50
2022-10-15T03:42:28.514Z,17.55
2022-10-15T03:43:28.511Z,17.54
2022-10-15T03:44:28.543Z,17.51
2022-10-15T03:45:28.524Z,17.53
2022-10-15T03:46:28.499Z,17.50
2022-10-15T03:47:28.488Z,17.46
2022-10-15T03:48:28.484Z,17.43
2022-10-15T03:49:28.480Z,17.40
2022-10-15T03:50:28.472Z,17.40
2022-10-15T03:51:30.789Z,17.47
2022-10-15T03:52:30.571Z,17.53
2022-10-15T03:53:28.448Z,17.50
2022-10-15T03:54:28.447Z,17.51
2022-10-15T03:55:28.471Z,17.38
2022-10-15T03:56:28.451Z,17.17
2022-10-15T03:57:28.436Z,16.88
2022-10-15T03:58:28.428Z,16.98
2022-10-15T03:59:28.443Z,16.96
2022-10-15T04:00:28.418Z,16.99
2022-10-15T04:01:28.475Z,16.96
2022-10-15T04:02:28.406Z,16.86
2022-10-15T04:03:28.411Z,16.85
2022-10-15T04:04:28.392Z,16.93
2022-10-15T04:05:28.382Z,16.98
2022-10-15T04:06:28.418Z,17.08
2022-10-15T04:07:28.393Z,17.20
2022-10-15T04:08:28.365Z,17.10
2022-10-15T04:09:28.353Z,17.23
2022-10-15T04:10:28.361Z,17.10
2022-10-15T04:11:28.357Z,17.11
2022-10-15T04:12:28.355Z,17.15
2022-10-15T04:13:28.332Z,17.06
2022-10-15T04:14:28.329Z,17.23
2022-10-15T04:15:28.338Z,17.29
2022-10-15T04:16:28.324Z,17.25
2022-10-15T04:18:01.782Z,17.35
2022-10-15T04:18:28.327Z,17.36
2022-10-15T04:19:28.294Z,17.38
2022-10-15T04:20:28.298Z,17.40
2022-10-15T04:21:28.283Z,17.40
2022-10-15T04:22:28.307Z,17.35
2022-10-15T04:23:28.323Z,17.29
2022-10-15T04:24:28.271Z,17.17
2022-10-15T04:25:28.276Z,17.20
2022-10-15T04:26:28.304Z,17.13
2022-10-15T04:27:28.260Z,17.08
2022-10-15T04:28:28.347Z,16.88
2022-10-15T04:29:28.236Z,16.93
2022-10-15T04:30:28.263Z,16.86
2022-10-15T04:31:28.232Z,17.00
2022-10-15T04:32:28.220Z,17.08
2022-10-15T04:33:28.231Z,17.11
2022-10-15T04:34:28.299Z,17.15
2022-10-15T04:35:28.208Z,17.29
2022-10-15T04:36:28.199Z,17.15
2022-10-15T04:37:28.194Z,17.18
2022-10-15T04:38:28.210Z,17.20
2022-10-15T04:39:28.199Z,17.18
2022-10-15T04:40:28.179Z,17.20
2022-10-15T04:41:28.167Z,17.32
2022-10-15T04:42:28.163Z,17.26
2022-10-15T04:43:29.151Z,17.22
2022-10-15T04:44:28.155Z,17.29
2022-10-15T04:45:28.141Z,17.33
2022-10-15T04:46:28.158Z,17.15
2022-10-15T04:47:28.127Z,17.14
2022-10-15T04:48:28.132Z,17.23
2022-10-15T04:49:28.131Z,17.03
2022-10-15T04:50:28.134Z,16.89
2022-10-15T04:51:28.115Z,16.81
2022-10-15T04:52:28.110Z,16.95
2022-10-15T04:53:29.643Z,16.95
2022-10-15T04:55:28.111Z,17.23
2022-10-15T04:56:28.085Z,17.15
2022-10-15T04:57:28.089Z,17.13
2022-10-15T04:58:28.071Z,17.28
2022-10-15T04:59:28.064Z,17.22
2022-10-15T05:00:28.075Z,17.22
2022-10-15T05:01:28.055Z,17.15
2022-10-15T05:02:28.119Z,17.28
2022-10-15T05:03:28.077Z,17.32
2022-10-15T05:04:28.039Z,17.25
2022-10-15T05:05:28.028Z,17.36
2022-10-15T05:06:28.034Z,17.38
2022-10-15T05:07:28.025Z,17.29
2022-10-15T05:08:28.019Z,17.23
2022-10-15T05:09:28.003Z,17.25
2022-10-15T05:10:27.999Z,17.32
2022-10-15T05:11:28.011Z,17.33
2022-10-15T05:12:28.003Z,17.29
2022-10-15T05:13:27.986Z,17.33
2022-10-15T05:14:27.978Z,17.40
2022-10-15T05:15:27.971Z,17.41
2022-10-15T05:16:28.089Z,17.44
2022-10-15T05:17:27.952Z,17.46
2022-10-15T05:18:27.947Z,17.38
2022-10-15T05:19:27.953Z,17.36
2022-10-15T05:20:27.927Z,17.48
2022-10-15T05:21:27.931Z,17.38
2022-10-15T05:22:27.942Z,17.44
2022-10-15T05:23:27.913Z,17.38
2022-10-15T05:24:27.943Z,17.26
2022-10-15T05:25:27.926Z,17.14
2022-10-15T05:26:27.909Z,17.17
2022-10-15T05:27:27.909Z,17.11
2022-10-15T05:28:27.906Z,17.18
2022-10-15T05:29:27.894Z,17.17
2022-10-15T05:30:27.872Z,17.18
2022-10-15T05:31:27.870Z,17.04
2022-10-15T05:32:27.888Z,16.92
2022-10-15T05:33:27.866Z,16.62
2022-10-15T05:34:27.849Z,16.56
2022-10-15T05:35:27.905Z,16.41
2022-10-15T05:36:27.848Z,16.58
2022-10-15T05:37:27.944Z,16.65
2022-10-15T05:38:27.830Z,16.68
2022-10-15T05:39:27.822Z,16.60
2022-10-15T05:40:27.813Z,16.52
2022-10-15T05:41:27.813Z,16.48
2022-10-15T05:42:27.796Z,16.62
2022-10-15T05:43:27.821Z,16.75
2022-10-15T05:44:27.832Z,16.88
2022-10-15T05:45:27.792Z,16.86
2022-10-15T05:46:27.777Z,16.75
2022-10-15T05:47:27.776Z,16.90
2022-10-15T05:48:27.788Z,17.03
2022-10-15T05:49:27.773Z,16.93
2022-10-15T05:50:27.760Z,16.92
2022-10-15T05:51:27.753Z,16.88
2022-10-15T05:52:27.751Z,16.90
2022-10-15T05:53:27.742Z,17.07
2022-10-15T05:54:27.746Z,17.03
2022-10-15T05:55:27.729Z,17.15
2022-10-15T05:56:27.729Z,17.10
2022-10-15T05:57:28.564Z,17.22
2022-10-15T05:58:30.823Z,17.22
2022-10-15T05:59:28.717Z,17.29
2022-10-15T06:00:27.717Z,17.29
2022-10-15T06:01:27.730Z,17.38
2022-10-15T06:02:28.427Z,17.35
2022-10-15T06:03:28.081Z,17.32
2022-10-15T06:04:29.529Z,17.28
2022-10-15T06:05:27.710Z,17.22
2022-10-15T06:06:28.759Z,17.22
2022-10-15T06:07:27.836Z,17.30
2022-10-15T06:08:27.688Z,17.29
2022-10-15T06:09:27.659Z,17.40
2022-10-15T06:10:27.768Z,17.40
2022-10-15T06:11:27.639Z,17.33
2022-10-15T06:12:27.971Z,17.17
2022-10-15T06:13:27.660Z,17.18
2022-10-15T06:14:27.626Z,17.23
2022-10-15T06:15:27.641Z,17.35
2022-10-15T06:16:27.618Z,17.35
2022-10-15T06:17:27.650Z,17.41
2022-10-15T06:18:27.611Z,17.35
2022-10-15T06:19:27.622Z,17.41
2022-10-15T06:20:27.622Z,17.41
2022-10-15T06:21:27.620Z,17.55
2022-10-15T06:22:27.634Z,17.50
2022-10-15T06:23:27.631Z,17.47
2022-10-15T06:24:27.568Z,17.32
2022-10-15T06:25:27.578Z,17.25
2022-10-15T06:26:27.575Z,17.35
2022-10-15T06:27:27.616Z,17.38
2022-10-15T06:28:27.665Z,17.36
2022-10-15T06:29:27.539Z,17.38
2022-10-15T06:30:27.590Z,17.38
2022-10-15T06:31:27.529Z,17.36
2022-10-15T06:32:27.565Z,17.50
2022-10-15T06:33:27.526Z,17.46
2022-10-15T06:34:27.496Z,17.50
2022-10-15T06:35:28.504Z,17.47
2022-10-15T06:36:27.572Z,17.54
2022-10-15T06:37:27.519Z,17.59
2022-10-15T06:38:27.500Z,17.54
2022-10-15T06:39:27.669Z,17.59
2022-10-15T06:40:27.473Z,17.64
2022-10-15T06:41:27.721Z,17.63
2022-10-15T06:42:27.517Z,17.63
2022-10-15T06:43:29.823Z,17.63
2022-10-15T06:44:28.529Z,17.69
2022-10-15T06:45:27.597Z,17.57
2022-10-15T06:46:27.448Z,17.70
2022-10-15T06:47:27.493Z,17.73
2022-10-15T06:48:27.443Z,17.54
2022-10-15T06:49:27.427Z,17.44
2022-10-15T06:50:27.413Z,17.35
2022-10-15T06:51:27.485Z,17.38
2022-10-15T06:52:27.574Z,17.40
2022-10-15T06:53:28.147Z,17.40
2022-10-15T06:54:27.453Z,17.47
2022-10-15T06:55:27.385Z,17.46
2022-10-15T06:56:27.377Z,17.53
2022-10-15T06:57:27.389Z,17.48
2022-10-15T06:58:27.576Z,17.63
2022-10-15T06:59:27.405Z,17.53
2022-10-15T07:00:27.500Z,17.36
2022-10-15T07:01:27.350Z,17.26
2022-10-15T07:02:27.343Z,17.22
2022-10-15T07:03:27.517Z,17.17
2022-10-15T07:04:27.359Z,17.04
2022-10-15T07:05:27.401Z,17.20
2022-10-15T07:06:27.387Z,17.10
2022-10-15T07:07:27.327Z,17.08
2022-10-15T07:08:27.322Z,17.14
2022-10-15T07:09:27.380Z,17.13
2022-10-15T07:10:27.313Z,17.26
2022-10-15T07:11:27.286Z,17.26
2022-10-15T07:12:27.383Z,17.44
2022-10-15T07:13:27.318Z,17.59
2022-10-15T07:14:27.316Z,17.40
2022-10-15T07:15:28.183Z,17.50
2022-10-15T07:16:27.265Z,17.57
2022-10-15T07:17:27.364Z,17.47
2022-10-15T07:18:27.300Z,17.50
2022-10-15T07:19:27.227Z,17.73
2022-10-15T07:20:27.291Z,17.66
2022-10-15T07:21:27.246Z,17.73
2022-10-15T07:22:27.218Z,17.87
2022-10-15T07:23:27.987Z,18.07
2022-10-15T07:24:27.232Z,18.22
2022-10-15T07:25:27.247Z,18.17
2022-10-15T07:26:27.288Z,18.10
2022-10-15T07:27:27.197Z,18.19
2022-10-15T07:28:27.326Z,18.34
2022-10-15T07:29:27.276Z,18.19
2022-10-15T07:30:27.160Z,18.37
2022-10-15T07:31:27.179Z,18.40
2022-10-15T07:32:27.152Z,18.24
2022-10-15T07:33:27.163Z,18.25
2022-10-15T07:34:27.162Z,18.33
2022-10-15T07:35:27.135Z,18.62
2022-10-15T07:36:27.154Z,18.72
2022-10-15T07:37:27.109Z,18.54
2022-10-15T07:38:28.077Z,18.28
2022-10-15T07:39:27.103Z,18.19
2022-10-15T07:40:27.249Z,18.49
2022-10-15T07:41:27.100Z,19.54
2022-10-15T07:42:27.150Z,21.11
2022-10-15T07:43:27.168Z,22.65
2022-10-15T07:44:27.066Z,23.85
2022-10-15T07:45:27.066Z,24.23
2022-10-15T07:46:27.158Z,23.83
2022-10-15T07:47:28.164Z,23.76
2022-10-15T07:48:27.124Z,23.53
2022-10-15T07:49:27.044Z,23.22
2022-10-15T07:50:29.317Z,22.65
2022-10-15T07:51:29.028Z,21.57
2022-10-15T07:52:27.394Z,20.98
2022-10-15T07:53:27.075Z,20.90
2022-10-15T07:54:27.038Z,20.47
2022-10-15T07:55:27.034Z,20.18
2022-10-15T07:56:27.030Z,19.68
2022-10-15T07:57:26.994Z,19.23
2022-10-15T07:58:27.183Z,18.95
2022-10-15T07:59:27.099Z,18.84
2022-10-15T08:00:27.072Z,18.84
2022-10-15T08:01:27.011Z,18.72
2022-10-15T08:02:27.104Z,18.65
2022-10-15T08:03:26.958Z,18.52
2022-10-15T08:04:26.979Z,18.55
2022-10-15T08:05:26.947Z,18.57
2022-10-15T08:06:26.938Z,18.12
2022-10-15T08:07:26.957Z,18.04
2022-10-15T08:08:26.942Z,18.10
2022-10-15T08:09:26.922Z,17.99
2022-10-15T08:10:26.931Z,18.06
2022-10-15T08:11:26.943Z,18.02
2022-10-15T08:12:27.152Z,18.09
2022-10-15T08:13:26.888Z,18.00
2022-10-15T08:14:26.937Z,18.13
2022-10-15T08:15:26.882Z,18.13
2022-10-15T08:16:26.905Z,18.25
2022-10-15T08:17:26.869Z,18.49
2022-10-15T08:18:26.846Z,18.79
2022-10-15T08:19:26.865Z,18.97
2022-10-15T08:20:26.846Z,19.18
2022-10-15T08:21:26.864Z,18.99
2022-10-15T08:22:26.957Z,18.87
2022-10-15T08:23:26.829Z,19.23
2022-10-15T08:24:26.842Z,19.51
2022-10-15T08:25:26.816Z,20.10
2022-10-15T08:26:26.849Z,20.56
2022-10-15T08:27:27.030Z,20.62
2022-10-15T08:28:28.213Z,20.18
2022-10-15T08:29:26.789Z,20.12
2022-10-15T08:30:26.782Z,20.23
2022-10-15T08:31:26.795Z,20.46
2022-10-15T08:32:26.924Z,20.50
2022-10-15T08:33:26.761Z,20.61
2022-10-15T08:34:26.758Z,20.77
2022-10-15T08:35:26.760Z,20.89
2022-10-15T08:36:26.766Z,20.98
2022-10-15T08:37:26.752Z,21.36
2022-10-15T08:38:26.772Z,21.63
2022-10-15T08:39:26.718Z,21.24
2022-10-15T08:40:26.734Z,20.74
2022-10-15T08:41:26.765Z,20.15
2022-10-15T08:42:27.067Z,20.02
2022-10-15T08:43:26.854Z,19.97
2022-10-15T08:44:26.835Z,20.46
2022-10-15T08:45:26.697Z,21.27
2022-10-15T08:46:26.688Z,21.53
2022-10-15T08:47:26.998Z,22.65
2022-10-15T08:48:26.668Z,24.23
2022-10-15T08:49:26.671Z,25.72
2022-10-15T08:50:26.747Z,27.01
2022-10-15T08:51:26.657Z,28.07
2022-10-15T08:52:26.657Z,28.06
2022-10-15T08:53:26.644Z,27.48
2022-10-15T08:54:26.632Z,27.10
2022-10-15T08:55:26.634Z,27.64
2022-10-15T08:56:26.664Z,27.95
2022-10-15T08:57:26.917Z,27.79
2022-10-15T08:58:26.628Z,27.99
2022-10-15T08:59:26.604Z,29.07
2022-10-15T09:00:26.638Z,29.37
2022-10-15T09:01:26.588Z,30.16
2022-10-15T09:02:26.644Z,30.94
2022-10-15T09:03:26.653Z,31.49
2022-10-15T09:05:26.581Z,30.16
2022-10-15T09:06:26.565Z,28.29
2022-10-15T09:07:26.740Z,28.13
2022-10-15T09:08:26.540Z,29.33
2022-10-15T09:09:26.564Z,29.96
2022-10-15T09:10:26.528Z,29.89
2022-10-15T09:11:26.568Z,28.81
2022-10-15T09:12:26.549Z,27.29
2022-10-15T09:13:27.773Z,26.52
2022-10-15T09:14:26.513Z,28.14
2022-10-15T09:15:27.865Z,28.23
2022-10-15T09:16:26.516Z,28.03
2022-10-15T09:17:26.985Z,27.99
2022-10-15T09:18:26.516Z,28.43
2022-10-15T09:19:26.508Z,28.35
2022-10-15T09:20:26.479Z,27.92
2022-10-15T09:21:26.519Z,27.11
2022-10-15T09:22:26.483Z,27.02
2022-10-15T09:23:26.483Z,27.23
2022-10-15T09:24:26.467Z,27.57
2022-10-15T09:25:28.610Z,27.98
2022-10-15T09:26:26.493Z,28.29
2022-10-15T09:27:26.664Z,29.70
2022-10-15T09:28:26.788Z,31.09
2022-10-15T09:29:26.442Z,30.29
2022-10-15T09:30:26.467Z,29.26
2022-10-15T09:31:27.097Z,27.21
2022-10-15T09:32:26.805Z,24.23
2022-10-15T09:33:26.425Z,23.77
2022-10-15T09:34:26.514Z,23.58
2022-10-15T09:35:26.409Z,23.22
2022-10-15T09:36:26.391Z,22.80
2022-10-15T09:37:26.442Z,21.99
2022-10-15T09:38:26.431Z,22.17
2022-10-15T09:39:27.423Z,21.97
2022-10-15T09:40:26.382Z,21.60
2022-10-15T09:41:26.394Z,21.85
2022-10-15T09:42:26.848Z,21.61
2022-10-15T09:43:26.519Z,21.59
2022-10-15T09:44:26.367Z,21.67
2022-10-15T09:45:26.344Z,21.59
2022-10-15T09:46:26.367Z,21.39
2022-10-15T09:47:26.358Z,21.27
2022-10-15T09:48:26.333Z,21.16
2022-10-15T09:49:26.398Z,20.49
2022-10-15T09:50:26.318Z,20.61
2022-10-15T09:51:26.383Z,20.31
2022-10-15T09:52:26.745Z,20.16
2022-10-15T09:53:28.250Z,20.09
2022-10-15T09:54:27.298Z,20.16
2022-10-15T09:55:26.347Z,20.33
2022-10-15T09:56:26.398Z,20.24
2022-10-15T09:57:26.282Z,20.50
2022-10-15T09:58:26.279Z,20.24
2022-10-15T09:59:26.328Z,19.93
2022-10-15T10:00:26.264Z,20.16
2022-10-15T10:01:26.311Z,20.25
2022-10-15T10:02:26.580Z,20.34
2022-10-15T10:03:26.238Z,20.28
2022-10-15T10:04:26.230Z,20.18
2022-10-15T10:05:26.214Z,20.38
2022-10-15T10:06:26.262Z,20.90
2022-10-15T10:07:26.202Z,20.87
2022-10-15T10:08:26.201Z,20.76
2022-10-15T10:09:27.289Z,20.84
2022-10-15T10:10:26.188Z,21.08
2022-10-15T10:11:26.186Z,21.16
2022-10-15T10:12:26.660Z,21.34
2022-10-15T10:13:26.204Z,21.36
2022-10-15T10:14:26.178Z,21.04
2022-10-15T10:15:26.162Z,21.16
2022-10-15T10:16:26.208Z,21.38
2022-10-15T10:17:26.153Z,21.39
2022-10-15T10:18:32.684Z,21.45
2022-10-15T10:19:26.128Z,21.32
2022-10-15T10:20:26.161Z,20.72
2022-10-15T10:21:26.144Z,20.20
2022-10-15T10:22:27.159Z,19.86
2022-10-15T10:23:26.100Z,19.76
2022-10-15T10:24:26.109Z,19.86
2022-10-15T10:25:26.096Z,20.00
2022-10-15T10:26:26.172Z,20.02
2022-10-15T10:27:26.362Z,20.18
2022-10-15T10:28:26.166Z,20.27
2022-10-15T10:29:34.804Z,20.47
2022-10-15T10:30:28.068Z,20.86
2022-10-15T10:31:26.079Z,21.13
2022-10-15T10:32:26.117Z,21.09
2022-10-15T10:33:26.084Z,21.42
2022-10-15T10:34:26.048Z,21.61
2022-10-15T10:35:26.033Z,21.59
2022-10-15T10:36:26.035Z,21.51
2022-10-15T10:37:26.508Z,21.79
2022-10-15T10:38:26.016Z,22.09
2022-10-15T10:39:26.003Z,22.17
2022-10-15T10:40:26.085Z,21.64
2022-10-15T10:41:26.007Z,21.38
2022-10-15T10:42:26.003Z,21.14
2022-10-15T10:43:25.987Z,20.84
2022-10-15T10:44:25.984Z,20.41
2022-10-15T10:46:26.072Z,20.21
2022-10-15T10:47:26.310Z,20.27
2022-10-15T10:48:25.953Z,20.23
2022-10-15T10:49:25.959Z,20.15
2022-10-15T10:50:26.694Z,20.21
2022-10-15T10:51:25.963Z,20.05
2022-10-15T10:52:25.946Z,20.46
2022-10-15T10:53:26.670Z,20.42
2022-10-15T10:54:25.958Z,20.56
2022-10-15T10:55:25.930Z,20.74
2022-10-15T10:56:25.924Z,20.77
2022-10-15T10:57:26.301Z,20.72
2022-10-15T10:58:27.183Z,20.39
2022-10-15T10:59:25.920Z,20.38
2022-10-15T11:00:25.976Z,20.09
2022-10-15T11:01:25.903Z,20.15
2022-10-15T11:02:25.887Z,20.27
2022-10-15T11:03:25.907Z,20.41
2022-10-15T11:04:25.877Z,20.49
2022-10-15T11:05:25.867Z,20.58
2022-10-15T11:06:25.862Z,20.62
2022-10-15T11:07:26.270Z,20.43
2022-10-15T11:08:25.874Z,20.25
2022-10-15T11:09:25.846Z,20.24
2022-10-15T11:10:25.838Z,20.08
2022-10-15T11:11:25.834Z,20.03
2022-10-15T11:12:25.835Z,20.10
2022-10-15T11:13:27.664Z,20.27
2022-10-15T11:14:26.818Z,20.46
2022-10-15T11:15:25.806Z,20.79
2022-10-15T11:16:25.806Z,20.71
2022-10-15T11:17:26.124Z,20.80
2022-10-15T11:18:25.810Z,20.50
2022-10-15T11:19:54.645Z,20.31
2022-10-15T11:20:39.023Z,20.39
2022-10-15T11:21:27.777Z,20.46
2022-10-15T11:22:25.785Z,20.42
2022-10-15T11:23:27.346Z,20.49
2022-10-15T11:24:26.025Z,20.51
2022-10-15T11:25:25.762Z,20.47
2022-10-15T11:26:25.747Z,20.18
2022-10-15T11:27:25.866Z,20.02
2022-10-15T11:28:25.787Z,20.03
2022-10-15T11:29:25.723Z,20.18
2022-10-15T11:30:25.741Z,20.16
2022-10-15T11:31:25.745Z,20.06
2022-10-15T11:32:26.213Z,20.08
2022-10-15T11:33:26.701Z,19.86
2022-10-15T11:34:25.702Z,19.86
2022-10-15T11:35:48.357Z,20.09
2022-10-15T11:36:27.682Z,20.12
2022-10-15T11:37:25.938Z,19.97
2022-10-15T11:38:25.690Z,20.09
2022-10-15T11:39:25.666Z,20.21
2022-10-15T11:40:25.703Z,20.00
2022-10-15T11:41:26.136Z,20.15
2022-10-15T11:42:26.155Z,20.02
2022-10-15T11:43:25.644Z,20.20
2022-10-15T11:44:25.637Z,20.28
2022-10-15T11:45:25.651Z,20.35
2022-10-15T11:46:25.713Z,20.34
2022-10-15T11:47:25.664Z,20.25
2022-10-15T11:48:25.623Z,20.16
2022-10-15T11:49:25.688Z,19.91
2022-10-15T11:50:25.594Z,19.98
2022-10-15T11:51:25.650Z,19.76
2022-10-15T11:52:25.921Z,20.03
2022-10-15T11:53:25.581Z,20.13
2022-10-15T11:54:25.583Z,20.27
2022-10-15T11:55:26.143Z,20.31
2022-10-15T11:56:25.701Z,20.31
2022-10-15T11:57:25.653Z,20.02
2022-10-15T11:58:25.792Z,20.03
2022-10-15T11:59:25.552Z,20.03
2022-10-15T12:00:25.531Z,20.25
2022-10-15T12:01:25.566Z,20.18
2022-10-15T12:02:25.965Z,19.93
2022-10-15T12:03:25.541Z,20.05
2022-10-15T12:04:28.908Z,20.25
2022-10-15T12:05:27.579Z,20.25
2022-10-15T12:06:25.633Z,20.08
2022-10-15T12:07:25.493Z,20.08
2022-10-15T12:08:25.505Z,20.23
2022-10-15T12:09:25.515Z,20.42
2022-10-15T12:10:25.488Z,20.43
2022-10-15T12:11:25.725Z,20.58
2022-10-15T12:12:25.890Z,20.53
2022-10-15T12:13:25.529Z,20.54
2022-10-15T12:14:25.739Z,20.71
2022-10-15T12:15:25.453Z,20.30
2022-10-15T12:16:26.171Z,20.13
2022-10-15T12:17:26.898Z,19.70
2022-10-15T12:18:27.743Z,19.83
2022-10-15T12:19:26.263Z,19.87
2022-10-15T12:20:27.635Z,19.47
2022-10-15T12:21:29.961Z,19.57
2022-10-15T12:22:28.696Z,19.73
2022-10-15T12:23:26.572Z,19.84
2022-10-15T12:24:25.409Z,19.86
2022-10-15T12:25:25.382Z,19.93
2022-10-15T12:26:25.394Z,19.70
2022-10-15T12:27:25.742Z,19.93
2022-10-15T12:28:25.479Z,20.20
2022-10-15T12:29:25.382Z,20.27
2022-10-15T12:30:26.286Z,20.35
2022-10-15T12:31:25.498Z,20.74
2022-10-15T12:32:25.375Z,20.98
2022-10-15T12:33:25.340Z,20.76
2022-10-15T12:34:25.322Z,20.62
2022-10-15T12:35:26.692Z,20.81
2022-10-15T12:36:25.322Z,20.98
2022-10-15T12:37:25.752Z,20.98
2022-10-15T12:38:25.317Z,20.39
2022-10-15T12:40:27.286Z,20.81
2022-10-15T12:41:25.294Z,20.43
2022-10-15T12:42:25.280Z,20.64
2022-10-15T12:43:25.287Z,20.62
2022-10-15T12:45:25.284Z,20.81
2022-10-15T12:46:25.263Z,20.90
2022-10-15T12:47:25.562Z,20.81
2022-10-15T12:48:25.260Z,20.83
2022-10-15T12:49:25.257Z,20.86
2022-10-15T12:50:25.226Z,20.59
2022-10-15T12:51:25.944Z,20.42
2022-10-15T12:52:25.224Z,20.53
2022-10-15T12:53:25.261Z,20.51
2022-10-15T12:54:25.209Z,20.59
2022-10-15T12:55:25.221Z,20.51
2022-10-15T12:56:25.197Z,20.23
2022-10-15T12:57:25.597Z,20.42
2022-10-15T12:58:25.210Z,20.39
2022-10-15T12:59:25.179Z,20.16
2022-10-15T13:00:25.181Z,20.15
2022-10-15T13:01:25.212Z,20.20